sensor_id;sensor_type;location;lat;lon;timestamp;temperature;humidity
7077;DHT22;3579;48.956;9.154;2024-01-11T00:00:43;12.20;56.00
7077;DHT22;3579;48.956;9.154;2024-01-11T00:03:09;12.10;55.90
7077;DHT22;3579;48.956;9.154;2024-01-11T00:05:35;12.10;55.90
7077;DHT22;3579;48.956;9.154;2024-01-11T00:08:02;12.10;56.00
7077;DHT22;3579;48.956;9.154;2024-01-11T00:10:28;12.10;56.10
7077;DHT22;3579;48.956;9.154;2024-01-11T00:12:54;12.10;56.10
7077;DHT22;3579;48.956;9.154;2024-01-11T00:15:20;12.00;56.10
7077;DHT22;3579;48.956;9.154;2024-01-11T00:17:46;12.00;56.10
7077;DHT22;3579;48.956;9.154;2024-01-11T00:20:12;12.00;56.10
7077;DHT22;3579;48.956;9.154;2024-01-11T00:22:38;12.00;56.10
7077;DHT22;3579;48.956;9.154;2024-01-11T00:25:05;12.20;56.20
7077;DHT22;3579;48.956;9.154;2024-01-11T00:27:31;12.30;56.20
7077;DHT22;3579;48.956;9.154;2024-01-11T00:29:57;12.50;56.00
7077;DHT22;3579;48.956;9.154;2024-01-11T00:32:23;12.70;55.70
7077;DHT22;3579;48.956;9.154;2024-01-11T00:34:49;12.90;55.50
7077;DHT22;3579;48.956;9.154;2024-01-11T00:37:16;13.00;55.40
7077;DHT22;3579;48.956;9.154;2024-01-11T00:39:42;13.00;55.30
7077;DHT22;3579;48.956;9.154;2024-01-11T00:42:09;13.10;55.40
7077;DHT22;3579;48.956;9.154;2024-01-11T00:44:35;13.00;55.40
7077;DHT22;3579;48.956;9.154;2024-01-11T00:47:01;13.00;55.40
7077;DHT22;3579;48.956;9.154;2024-01-11T00:49:27;12.90;55.40
7077;DHT22;3579;48.956;9.154;2024-01-11T00:51:53;12.90;55.60
7077;DHT22;3579;48.956;9.154;2024-01-11T00:54:19;12.90;55.70
7077;DHT22;3579;48.956;9.154;2024-01-11T00:56:45;12.80;55.70
7077;DHT22;3579;48.956;9.154;2024-01-11T00:59:11;12.80;55.80
7077;DHT22;3579;48.956;9.154;2024-01-11T01:01:37;12.80;55.90
7077;DHT22;3579;48.956;9.154;2024-01-11T01:04:04;12.80;55.90
7077;DHT22;3579;48.956;9.154;2024-01-11T01:06:30;12.70;55.80
7077;DHT22;3579;48.956;9.154;2024-01-11T01:08:56;12.70;55.80
7077;DHT22;3579;48.956;9.154;2024-01-11T01:11:22;12.70;55.80
7077;DHT22;3579;48.956;9.154;2024-01-11T01:13:48;12.70;55.80
7077;DHT22;3579;48.956;9.154;2024-01-11T01:16:14;12.70;55.80
7077;DHT22;3579;48.956;9.154;2024-01-11T01:18:40;12.70;55.80
7077;DHT22;3579;48.956;9.154;2024-01-11T01:21:06;12.70;55.80
7077;DHT22;3579;48.956;9.154;2024-01-11T01:23:32;12.60;55.80
7077;DHT22;3579;48.956;9.154;2024-01-11T01:25:58;12.60;55.80
7077;DHT22;3579;48.956;9.154;2024-01-11T01:28:24;12.50;55.80
7077;DHT22;3579;48.956;9.154;2024-01-11T01:30:52;12.60;55.90
7077;DHT22;3579;48.956;9.154;2024-01-11T01:33:18;12.60;55.90
7077;DHT22;3579;48.956;9.154;2024-01-11T01:35:44;12.60;55.90
7077;DHT22;3579;48.956;9.154;2024-01-11T01:38:10;12.50;55.80
7077;DHT22;3579;48.956;9.154;2024-01-11T01:40:37;12.50;55.80
7077;DHT22;3579;48.956;9.154;2024-01-11T01:43:07;12.50;55.80
7077;DHT22;3579;48.956;9.154;2024-01-11T01:45:34;12.50;56.30
7077;DHT22;3579;48.956;9.154;2024-01-11T01:48:01;12.50;55.80
7077;DHT22;3579;48.956;9.154;2024-01-11T01:50:28;12.50;55.80
7077;DHT22;3579;48.956;9.154;2024-01-11T01:52:55;12.50;55.80
7077;DHT22;3579;48.956;9.154;2024-01-11T01:55:22;12.40;55.80
7077;DHT22;3579;48.956;9.154;2024-01-11T01:57:50;12.40;55.80
7077;DHT22;3579;48.956;9.154;2024-01-11T02:00:17;12.30;55.80
7077;DHT22;3579;48.956;9.154;2024-01-11T02:02:44;12.30;55.80
7077;DHT22;3579;48.956;9.154;2024-01-11T02:05:12;12.30;55.90
7077;DHT22;3579;48.956;9.154;2024-01-11T02:07:39;12.20;55.90
7077;DHT22;3579;48.956;9.154;2024-01-11T02:10:07;12.20;56.10
7077;DHT22;3579;48.956;9.154;2024-01-11T02:12:35;12.20;56.00
7077;DHT22;3579;48.956;9.154;2024-01-11T02:15:02;12.30;56.10
7077;DHT22;3579;48.956;9.154;2024-01-11T02:17:30;12.30;56.00
7077;DHT22;3579;48.956;9.154;2024-01-11T02:19:56;12.50;56.10
7077;DHT22;3579;48.956;9.154;2024-01-11T02:22:26;12.60;55.90
7077;DHT22;3579;48.956;9.154;2024-01-11T02:24:54;12.80;55.70
7077;DHT22;3579;48.956;9.154;2024-01-11T02:27:20;13.00;55.50
7077;DHT22;3579;48.956;9.154;2024-01-11T02:29:46;13.10;55.40
7077;DHT22;3579;48.956;9.154;2024-01-11T02:32:12;13.10;55.40
7077;DHT22;3579;48.956;9.154;2024-01-11T02:34:38;13.10;55.40
7077;DHT22;3579;48.956;9.154;2024-01-11T02:37:05;13.10;55.40
7077;DHT22;3579;48.956;9.154;2024-01-11T02:39:32;13.10;55.40
7077;DHT22;3579;48.956;9.154;2024-01-11T02:41:59;13.00;55.40
7077;DHT22;3579;48.956;9.154;2024-01-11T02:44:26;13.00;55.40
7077;DHT22;3579;48.956;9.154;2024-01-11T02:46:52;13.00;55.50
7077;DHT22;3579;48.956;9.154;2024-01-11T02:49:18;13.00;55.60
7077;DHT22;3579;48.956;9.154;2024-01-11T02:51:44;12.90;55.60
7077;DHT22;3579;48.956;9.154;2024-01-11T02:54:11;12.90;55.60
7077;DHT22;3579;48.956;9.154;2024-01-11T02:56:37;12.90;55.70
7077;DHT22;3579;48.956;9.154;2024-01-11T02:59:03;12.80;55.70
7077;DHT22;3579;48.956;9.154;2024-01-11T03:01:29;12.80;55.80
7077;DHT22;3579;48.956;9.154;2024-01-11T03:03:56;12.80;55.70
7077;DHT22;3579;48.956;9.154;2024-01-11T03:06:22;12.80;55.70
7077;DHT22;3579;48.956;9.154;2024-01-11T03:08:49;12.80;55.70
7077;DHT22;3579;48.956;9.154;2024-01-11T03:11:15;12.70;55.60
7077;DHT22;3579;48.956;9.154;2024-01-11T03:13:42;12.70;55.60
7077;DHT22;3579;48.956;9.154;2024-01-11T03:16:08;12.80;55.70
7077;DHT22;3579;48.956;9.154;2024-01-11T03:18:34;12.70;55.50
7077;DHT22;3579;48.956;9.154;2024-01-11T03:21:00;12.70;55.50
7077;DHT22;3579;48.956;9.154;2024-01-11T03:23:26;12.70;55.60
7077;DHT22;3579;48.956;9.154;2024-01-11T03:25:57;12.70;55.60
7077;DHT22;3579;48.956;9.154;2024-01-11T03:28:23;12.70;55.60
7077;DHT22;3579;48.956;9.154;2024-01-11T03:30:49;12.60;55.50
7077;DHT22;3579;48.956;9.154;2024-01-11T03:33:15;12.60;55.60
7077;DHT22;3579;48.956;9.154;2024-01-11T03:35:41;12.60;55.60
7077;DHT22;3579;48.956;9.154;2024-01-11T03:38:09;12.60;55.60
7077;DHT22;3579;48.956;9.154;2024-01-11T03:40:35;12.60;55.60
7077;DHT22;3579;48.956;9.154;2024-01-11T03:43:01;12.50;55.60
7077;DHT22;3579;48.956;9.154;2024-01-11T03:45:27;12.50;55.60
7077;DHT22;3579;48.956;9.154;2024-01-11T03:47:53;12.50;55.60
7077;DHT22;3579;48.956;9.154;2024-01-11T03:50:19;12.50;55.70
7077;DHT22;3579;48.956;9.154;2024-01-11T03:52:45;12.40;55.60
7077;DHT22;3579;48.956;9.154;2024-01-11T03:55:11;12.40;55.70
7077;DHT22;3579;48.956;9.154;2024-01-11T03:57:37;12.40;55.70
7077;DHT22;3579;48.956;9.154;2024-01-11T04:00:04;12.30;55.70
7077;DHT22;3579;48.956;9.154;2024-01-11T04:02:32;12.30;55.80
7077;DHT22;3579;48.956;9.154;2024-01-11T04:04:58;12.30;55.90
7077;DHT22;3579;48.956;9.154;2024-01-11T04:07:24;12.40;56.40
7077;DHT22;3579;48.956;9.154;2024-01-11T04:09:50;12.50;55.80
7077;DHT22;3579;48.956;9.154;2024-01-11T04:12:16;12.60;55.80
7077;DHT22;3579;48.956;9.154;2024-01-11T04:14:42;12.70;55.60
7077;DHT22;3579;48.956;9.154;2024-01-11T04:17:08;12.90;55.60
7077;DHT22;3579;48.956;9.154;2024-01-11T04:19:34;12.90;55.40
7077;DHT22;3579;48.956;9.154;2024-01-11T04:22:00;13.00;55.30
7077;DHT22;3579;48.956;9.154;2024-01-11T04:24:26;13.00;55.30
7077;DHT22;3579;48.956;9.154;2024-01-11T04:26:52;13.10;55.40
7077;DHT22;3579;48.956;9.154;2024-01-11T04:29:18;13.00;55.30
7077;DHT22;3579;48.956;9.154;2024-01-11T04:31:44;13.00;55.30
7077;DHT22;3579;48.956;9.154;2024-01-11T04:34:10;13.00;55.40
7077;DHT22;3579;48.956;9.154;2024-01-11T04:36:39;13.00;55.40
7077;DHT22;3579;48.956;9.154;2024-01-11T04:39:05;12.90;55.40
7077;DHT22;3579;48.956;9.154;2024-01-11T04:41:35;12.90;55.40
7077;DHT22;3579;48.956;9.154;2024-01-11T04:44:03;12.90;55.40
7077;DHT22;3579;48.956;9.154;2024-01-11T04:46:29;12.90;55.50
7077;DHT22;3579;48.956;9.154;2024-01-11T04:48:55;12.80;55.50
7077;DHT22;3579;48.956;9.154;2024-01-11T04:51:21;12.80;55.50
7077;DHT22;3579;48.956;9.154;2024-01-11T04:53:47;12.80;55.50
7077;DHT22;3579;48.956;9.154;2024-01-11T04:56:16;12.80;55.50
7077;DHT22;3579;48.956;9.154;2024-01-11T04:58:44;12.70;55.40
7077;DHT22;3579;48.956;9.154;2024-01-11T05:01:14;12.70;55.40
7077;DHT22;3579;48.956;9.154;2024-01-11T05:03:41;12.80;55.40
7077;DHT22;3579;48.956;9.154;2024-01-11T05:06:08;12.80;55.40
7077;DHT22;3579;48.956;9.154;2024-01-11T05:08:34;12.80;55.30
7077;DHT22;3579;48.956;9.154;2024-01-11T05:11:00;12.70;55.20
7077;DHT22;3579;48.956;9.154;2024-01-11T05:13:26;12.70;55.20
7077;DHT22;3579;48.956;9.154;2024-01-11T05:15:52;12.70;55.20
7077;DHT22;3579;48.956;9.154;2024-01-11T05:18:18;12.60;55.10
7077;DHT22;3579;48.956;9.154;2024-01-11T05:20:44;12.60;55.20
7077;DHT22;3579;48.956;9.154;2024-01-11T05:23:10;12.60;55.20
7077;DHT22;3579;48.956;9.154;2024-01-11T05:25:37;12.60;55.20
7077;DHT22;3579;48.956;9.154;2024-01-11T05:28:03;12.60;55.20
7077;DHT22;3579;48.956;9.154;2024-01-11T05:30:33;12.60;55.30
7077;DHT22;3579;48.956;9.154;2024-01-11T05:32:59;12.50;55.20
7077;DHT22;3579;48.956;9.154;2024-01-11T05:35:25;12.50;55.20
7077;DHT22;3579;48.956;9.154;2024-01-11T05:37:53;12.50;55.30
7077;DHT22;3579;48.956;9.154;2024-01-11T05:40:21;12.40;55.20
7077;DHT22;3579;48.956;9.154;2024-01-11T05:42:47;12.40;55.30
7077;DHT22;3579;48.956;9.154;2024-01-11T05:45:14;12.30;55.30
7077;DHT22;3579;48.956;9.154;2024-01-11T05:47:43;12.30;55.30
7077;DHT22;3579;48.956;9.154;2024-01-11T05:50:10;12.30;55.40
7077;DHT22;3579;48.956;9.154;2024-01-11T05:52:37;12.30;55.30
7077;DHT22;3579;48.956;9.154;2024-01-11T05:55:03;12.30;55.30
7077;DHT22;3579;48.956;9.154;2024-01-11T05:57:30;12.40;55.30
7077;DHT22;3579;48.956;9.154;2024-01-11T05:59:56;12.40;55.30
7077;DHT22;3579;48.956;9.154;2024-01-11T06:02:22;12.40;55.30
7077;DHT22;3579;48.956;9.154;2024-01-11T06:04:49;12.40;55.30
7077;DHT22;3579;48.956;9.154;2024-01-11T06:07:15;12.40;55.20
7077;DHT22;3579;48.956;9.154;2024-01-11T06:09:41;12.40;55.20
7077;DHT22;3579;48.956;9.154;2024-01-11T06:12:07;12.40;55.20
7077;DHT22;3579;48.956;9.154;2024-01-11T06:14:35;12.40;55.20
7077;DHT22;3579;48.956;9.154;2024-01-11T06:17:01;12.40;55.20
7077;DHT22;3579;48.956;9.154;2024-01-11T06:19:27;12.40;55.10
7077;DHT22;3579;48.956;9.154;2024-01-11T06:21:53;12.40;55.10
7077;DHT22;3579;48.956;9.154;2024-01-11T06:24:19;12.40;55.10
7077;DHT22;3579;48.956;9.154;2024-01-11T06:26:45;12.40;55.10
7077;DHT22;3579;48.956;9.154;2024-01-11T06:29:11;12.40;55.10
7077;DHT22;3579;48.956;9.154;2024-01-11T06:31:37;12.40;55.10
7077;DHT22;3579;48.956;9.154;2024-01-11T06:34:03;12.40;55.10
7077;DHT22;3579;48.956;9.154;2024-01-11T06:36:30;12.30;55.10
7077;DHT22;3579;48.956;9.154;2024-01-11T06:38:56;12.30;55.00
7077;DHT22;3579;48.956;9.154;2024-01-11T06:41:22;12.30;55.10
7077;DHT22;3579;48.956;9.154;2024-01-11T06:43:48;12.30;55.10
7077;DHT22;3579;48.956;9.154;2024-01-11T06:46:19;12.20;54.90
7077;DHT22;3579;48.956;9.154;2024-01-11T06:48:46;12.20;54.90
7077;DHT22;3579;48.956;9.154;2024-01-11T06:51:15;12.20;55.00
7077;DHT22;3579;48.956;9.154;2024-01-11T06:53:42;12.20;55.00
7077;DHT22;3579;48.956;9.154;2024-01-11T06:56:19;12.20;55.00
7077;DHT22;3579;48.956;9.154;2024-01-11T06:58:45;12.10;55.00
7077;DHT22;3579;48.956;9.154;2024-01-11T07:01:12;12.10;55.00
7077;DHT22;3579;48.956;9.154;2024-01-11T07:03:39;12.10;55.10
7077;DHT22;3579;48.956;9.154;2024-01-11T07:06:06;12.00;55.10
7077;DHT22;3579;48.956;9.154;2024-01-11T07:08:33;12.00;55.20
7077;DHT22;3579;48.956;9.154;2024-01-11T07:11:02;12.10;55.20
7077;DHT22;3579;48.956;9.154;2024-01-11T07:13:29;12.10;55.20
7077;DHT22;3579;48.956;9.154;2024-01-11T07:15:55;12.10;55.10
7077;DHT22;3579;48.956;9.154;2024-01-11T07:18:23;12.20;55.10
7077;DHT22;3579;48.956;9.154;2024-01-11T07:20:50;12.10;55.00
7077;DHT22;3579;48.956;9.154;2024-01-11T07:23:16;12.20;55.00
7077;DHT22;3579;48.956;9.154;2024-01-11T07:25:42;12.20;55.00
7077;DHT22;3579;48.956;9.154;2024-01-11T07:28:09;12.20;55.00
7077;DHT22;3579;48.956;9.154;2024-01-11T07:30:35;12.20;55.00
7077;DHT22;3579;48.956;9.154;2024-01-11T07:33:01;12.20;54.90
7077;DHT22;3579;48.956;9.154;2024-01-11T07:35:28;12.20;54.90
7077;DHT22;3579;48.956;9.154;2024-01-11T07:37:54;12.20;54.90
7077;DHT22;3579;48.956;9.154;2024-01-11T07:40:20;12.20;54.90
7077;DHT22;3579;48.956;9.154;2024-01-11T07:42:46;12.20;55.20
7077;DHT22;3579;48.956;9.154;2024-01-11T07:45:12;12.20;54.90
7077;DHT22;3579;48.956;9.154;2024-01-11T07:47:39;12.20;54.90
7077;DHT22;3579;48.956;9.154;2024-01-11T07:50:07;12.20;54.90
7077;DHT22;3579;48.956;9.154;2024-01-11T07:52:36;12.20;55.00
7077;DHT22;3579;48.956;9.154;2024-01-11T07:55:03;12.20;54.90
7077;DHT22;3579;48.956;9.154;2024-01-11T07:57:34;12.20;55.00
7077;DHT22;3579;48.956;9.154;2024-01-11T08:00:00;12.10;54.90
7077;DHT22;3579;48.956;9.154;2024-01-11T08:02:26;12.10;54.90
7077;DHT22;3579;48.956;9.154;2024-01-11T08:04:53;12.10;54.90
7077;DHT22;3579;48.956;9.154;2024-01-11T08:07:19;12.10;55.00
7077;DHT22;3579;48.956;9.154;2024-01-11T08:09:45;12.10;55.00
7077;DHT22;3579;48.956;9.154;2024-01-11T08:12:11;12.10;55.00
7077;DHT22;3579;48.956;9.154;2024-01-11T08:14:39;12.10;55.00
7077;DHT22;3579;48.956;9.154;2024-01-11T08:17:08;12.10;55.00
7077;DHT22;3579;48.956;9.154;2024-01-11T08:19:34;12.10;55.00
7077;DHT22;3579;48.956;9.154;2024-01-11T08:22:01;12.10;55.00
7077;DHT22;3579;48.956;9.154;2024-01-11T08:24:27;12.10;55.10
7077;DHT22;3579;48.956;9.154;2024-01-11T08:26:53;12.10;55.00
7077;DHT22;3579;48.956;9.154;2024-01-11T08:29:19;12.20;55.20
7077;DHT22;3579;48.956;9.154;2024-01-11T08:31:46;12.20;55.10
7077;DHT22;3579;48.956;9.154;2024-01-11T08:34:14;12.20;55.10
7077;DHT22;3579;48.956;9.154;2024-01-11T08:36:41;12.20;55.00
7077;DHT22;3579;48.956;9.154;2024-01-11T08:39:07;12.30;55.10
7077;DHT22;3579;48.956;9.154;2024-01-11T08:41:41;12.30;55.10
7077;DHT22;3579;48.956;9.154;2024-01-11T08:44:09;12.30;55.10
7077;DHT22;3579;48.956;9.154;2024-01-11T08:46:35;12.30;55.10
7077;DHT22;3579;48.956;9.154;2024-01-11T08:49:02;12.40;55.10
7077;DHT22;3579;48.956;9.154;2024-01-11T08:51:31;12.40;55.00
7077;DHT22;3579;48.956;9.154;2024-01-11T08:54:01;12.50;55.00
7077;DHT22;3579;48.956;9.154;2024-01-11T08:56:27;12.50;55.10
7077;DHT22;3579;48.956;9.154;2024-01-11T08:58:54;12.50;55.00
7077;DHT22;3579;48.956;9.154;2024-01-11T09:01:20;12.50;54.90
7077;DHT22;3579;48.956;9.154;2024-01-11T09:03:48;12.50;55.00
7077;DHT22;3579;48.956;9.154;2024-01-11T09:06:15;13.60;55.80
7077;DHT22;3579;48.956;9.154;2024-01-11T09:08:41;12.50;54.90
7077;DHT22;3579;48.956;9.154;2024-01-11T09:11:08;12.60;55.50
7077;DHT22;3579;48.956;9.154;2024-01-11T09:13:36;12.60;54.90
7077;DHT22;3579;48.956;9.154;2024-01-11T09:16:02;12.60;54.90
7077;DHT22;3579;48.956;9.154;2024-01-11T09:18:28;12.60;54.80
7077;DHT22;3579;48.956;9.154;2024-01-11T09:20:54;12.60;54.80
7077;DHT22;3579;48.956;9.154;2024-01-11T09:23:21;12.70;54.80
7077;DHT22;3579;48.956;9.154;2024-01-11T09:25:48;12.70;54.80
7077;DHT22;3579;48.956;9.154;2024-01-11T09:28:14;12.70;54.80
7077;DHT22;3579;48.956;9.154;2024-01-11T09:30:41;12.70;54.70
7077;DHT22;3579;48.956;9.154;2024-01-11T09:33:07;12.80;54.80
7077;DHT22;3579;48.956;9.154;2024-01-11T09:35:33;12.80;54.80
7077;DHT22;3579;48.956;9.154;2024-01-11T09:37:59;12.80;54.80
7077;DHT22;3579;48.956;9.154;2024-01-11T09:40:26;12.80;54.80
7077;DHT22;3579;48.956;9.154;2024-01-11T09:42:52;12.90;54.80
7077;DHT22;3579;48.956;9.154;2024-01-11T09:45:19;12.90;54.80
7077;DHT22;3579;48.956;9.154;2024-01-11T09:47:45;12.90;54.60
7077;DHT22;3579;48.956;9.154;2024-01-11T09:50:13;12.90;54.60
7077;DHT22;3579;48.956;9.154;2024-01-11T09:52:48;13.00;54.60
7077;DHT22;3579;48.956;9.154;2024-01-11T09:55:15;13.00;54.50
7077;DHT22;3579;48.956;9.154;2024-01-11T09:57:47;13.00;54.40
7077;DHT22;3579;48.956;9.154;2024-01-11T10:00:17;13.10;54.40
7077;DHT22;3579;48.956;9.154;2024-01-11T10:02:45;13.10;54.40
7077;DHT22;3579;48.956;9.154;2024-01-11T10:05:12;13.10;54.40
7077;DHT22;3579;48.956;9.154;2024-01-11T10:07:40;13.10;54.20
7077;DHT22;3579;48.956;9.154;2024-01-11T10:10:07;13.20;54.30
7077;DHT22;3579;48.956;9.154;2024-01-11T10:12:37;13.20;54.30
7077;DHT22;3579;48.956;9.154;2024-01-11T10:15:07;13.20;54.20
7077;DHT22;3579;48.956;9.154;2024-01-11T10:17:43;13.20;54.20
7077;DHT22;3579;48.956;9.154;2024-01-11T10:20:11;13.20;54.20
7077;DHT22;3579;48.956;9.154;2024-01-11T10:22:40;13.20;54.20
7077;DHT22;3579;48.956;9.154;2024-01-11T10:25:16;13.30;54.30
7077;DHT22;3579;48.956;9.154;2024-01-11T10:27:44;13.30;54.30
7077;DHT22;3579;48.956;9.154;2024-01-11T10:30:12;13.30;54.30
7077;DHT22;3579;48.956;9.154;2024-01-11T10:32:49;13.30;54.20
7077;DHT22;3579;48.956;9.154;2024-01-11T10:35:15;13.30;54.20
7077;DHT22;3579;48.956;9.154;2024-01-11T10:37:44;13.30;54.20
7077;DHT22;3579;48.956;9.154;2024-01-11T10:40:10;13.30;54.20
7077;DHT22;3579;48.956;9.154;2024-01-11T10:42:51;13.30;54.20
7077;DHT22;3579;48.956;9.154;2024-01-11T10:45:19;13.30;54.20
7077;DHT22;3579;48.956;9.154;2024-01-11T10:47:54;13.30;54.20
7077;DHT22;3579;48.956;9.154;2024-01-11T10:50:23;13.30;54.20
7077;DHT22;3579;48.956;9.154;2024-01-11T10:53:28;13.30;54.20
7077;DHT22;3579;48.956;9.154;2024-01-11T10:55:59;13.30;54.20
7077;DHT22;3579;48.956;9.154;2024-01-11T10:58:27;13.30;54.20
7077;DHT22;3579;48.956;9.154;2024-01-11T11:00:54;13.30;54.20
7077;DHT22;3579;48.956;9.154;2024-01-11T11:03:23;13.30;54.20
7077;DHT22;3579;48.956;9.154;2024-01-11T11:05:56;13.30;54.20
7077;DHT22;3579;48.956;9.154;2024-01-11T11:08:23;13.30;54.20
7077;DHT22;3579;48.956;9.154;2024-01-11T11:10:56;13.30;54.20
7077;DHT22;3579;48.956;9.154;2024-01-11T11:13:26;13.30;54.20
7077;DHT22;3579;48.956;9.154;2024-01-11T11:15:53;13.30;54.20
7077;DHT22;3579;48.956;9.154;2024-01-11T11:18:21;13.30;54.20
7077;DHT22;3579;48.956;9.154;2024-01-11T11:20:48;13.30;54.20
7077;DHT22;3579;48.956;9.154;2024-01-11T11:23:17;13.40;54.20
7077;DHT22;3579;48.956;9.154;2024-01-11T11:25:48;13.40;54.20
7077;DHT22;3579;48.956;9.154;2024-01-11T11:28:16;13.40;54.20
7077;DHT22;3579;48.956;9.154;2024-01-11T11:30:43;13.40;54.20
7077;DHT22;3579;48.956;9.154;2024-01-11T11:33:17;13.40;54.20
7077;DHT22;3579;48.956;9.154;2024-01-11T11:35:45;13.40;54.20
7077;DHT22;3579;48.956;9.154;2024-01-11T11:38:23;13.40;54.20
7077;DHT22;3579;48.956;9.154;2024-01-11T11:40:52;13.30;54.20
7077;DHT22;3579;48.956;9.154;2024-01-11T11:43:20;13.30;54.20
7077;DHT22;3579;48.956;9.154;2024-01-11T11:45:51;13.30;54.20
7077;DHT22;3579;48.956;9.154;2024-01-11T11:51:11;13.30;54.20
7077;DHT22;3579;48.956;9.154;2024-01-11T11:53:39;13.30;54.20
7077;DHT22;3579;48.956;9.154;2024-01-11T11:56:05;13.30;54.20
7077;DHT22;3579;48.956;9.154;2024-01-11T11:58:34;13.30;54.20
7077;DHT22;3579;48.956;9.154;2024-01-11T12:01:01;13.30;54.20
7077;DHT22;3579;48.956;9.154;2024-01-11T12:03:38;13.30;54.20
7077;DHT22;3579;48.956;9.154;2024-01-11T12:06:10;13.30;54.30
7077;DHT22;3579;48.956;9.154;2024-01-11T12:08:37;13.30;54.30
7077;DHT22;3579;48.956;9.154;2024-01-11T12:11:03;13.30;54.20
7077;DHT22;3579;48.956;9.154;2024-01-11T12:13:30;13.20;54.20
7077;DHT22;3579;48.956;9.154;2024-01-11T12:15:59;13.30;54.30
7077;DHT22;3579;48.956;9.154;2024-01-11T12:18:25;13.30;54.30
7077;DHT22;3579;48.956;9.154;2024-01-11T12:20:52;13.30;54.30
7077;DHT22;3579;48.956;9.154;2024-01-11T12:23:20;13.30;54.30
7077;DHT22;3579;48.956;9.154;2024-01-11T12:25:47;13.30;54.30
7077;DHT22;3579;48.956;9.154;2024-01-11T12:28:14;13.30;54.40
7077;DHT22;3579;48.956;9.154;2024-01-11T12:30:40;13.20;54.30
7077;DHT22;3579;48.956;9.154;2024-01-11T12:33:06;13.20;54.40
7077;DHT22;3579;48.956;9.154;2024-01-11T12:35:33;13.20;54.40
7077;DHT22;3579;48.956;9.154;2024-01-11T12:38:01;13.10;54.40
7077;DHT22;3579;48.956;9.154;2024-01-11T12:40:27;13.10;54.50
7077;DHT22;3579;48.956;9.154;2024-01-11T12:42:54;13.10;54.40
7077;DHT22;3579;48.956;9.154;2024-01-11T12:45:20;13.10;54.50
7077;DHT22;3579;48.956;9.154;2024-01-11T12:47:46;13.10;54.50
7077;DHT22;3579;48.956;9.154;2024-01-11T12:50:12;13.10;54.50
7077;DHT22;3579;48.956;9.154;2024-01-11T12:52:39;13.10;54.60
7077;DHT22;3579;48.956;9.154;2024-01-11T12:55:07;13.10;54.50
7077;DHT22;3579;48.956;9.154;2024-01-11T12:57:34;13.10;54.50
7077;DHT22;3579;48.956;9.154;2024-01-11T13:00:13;13.10;54.60
7077;DHT22;3579;48.956;9.154;2024-01-11T13:02:40;13.10;54.60
7077;DHT22;3579;48.956;9.154;2024-01-11T13:05:06;13.10;54.50
7077;DHT22;3579;48.956;9.154;2024-01-11T13:07:33;13.10;54.50
7077;DHT22;3579;48.956;9.154;2024-01-11T13:10:00;13.10;54.50
7077;DHT22;3579;48.956;9.154;2024-01-11T13:12:26;13.10;54.50
7077;DHT22;3579;48.956;9.154;2024-01-11T13:14:52;13.10;54.40
7077;DHT22;3579;48.956;9.154;2024-01-11T13:17:18;13.20;54.40
7077;DHT22;3579;48.956;9.154;2024-01-11T13:19:45;13.20;54.40
7077;DHT22;3579;48.956;9.154;2024-01-11T13:22:11;13.10;54.30
7077;DHT22;3579;48.956;9.154;2024-01-11T13:24:37;13.10;54.30
7077;DHT22;3579;48.956;9.154;2024-01-11T13:27:03;13.10;54.30
7077;DHT22;3579;48.956;9.154;2024-01-11T13:29:30;13.10;54.30
7077;DHT22;3579;48.956;9.154;2024-01-11T13:31:56;13.10;54.30
7077;DHT22;3579;48.956;9.154;2024-01-11T13:34:22;13.10;54.30
7077;DHT22;3579;48.956;9.154;2024-01-11T13:36:49;13.10;54.40
7077;DHT22;3579;48.956;9.154;2024-01-11T13:39:15;13.10;54.40
7077;DHT22;3579;48.956;9.154;2024-01-11T13:41:44;13.00;54.30
7077;DHT22;3579;48.956;9.154;2024-01-11T13:44:10;13.00;54.30
7077;DHT22;3579;48.956;9.154;2024-01-11T13:46:37;13.00;54.40
7077;DHT22;3579;48.956;9.154;2024-01-11T13:49:03;13.00;54.40
7077;DHT22;3579;48.956;9.154;2024-01-11T13:51:30;13.00;54.40
7077;DHT22;3579;48.956;9.154;2024-01-11T13:53:58;13.00;54.50
7077;DHT22;3579;48.956;9.154;2024-01-11T13:56:27;13.00;54.50
7077;DHT22;3579;48.956;9.154;2024-01-11T13:58:54;12.90;54.50
7077;DHT22;3579;48.956;9.154;2024-01-11T14:01:21;13.00;54.60
7077;DHT22;3579;48.956;9.154;2024-01-11T14:03:47;12.90;54.60
7077;DHT22;3579;48.956;9.154;2024-01-11T14:06:14;12.90;54.60
7077;DHT22;3579;48.956;9.154;2024-01-11T14:08:41;12.90;54.60
7077;DHT22;3579;48.956;9.154;2024-01-11T14:11:07;12.90;54.60
7077;DHT22;3579;48.956;9.154;2024-01-11T14:13:34;12.90;54.70
7077;DHT22;3579;48.956;9.154;2024-01-11T14:16:00;12.80;54.60
7077;DHT22;3579;48.956;9.154;2024-01-11T14:18:26;12.80;54.70
7077;DHT22;3579;48.956;9.154;2024-01-11T14:20:52;12.80;54.60
7077;DHT22;3579;48.956;9.154;2024-01-11T14:23:18;12.80;54.60
7077;DHT22;3579;48.956;9.154;2024-01-11T14:25:46;12.80;54.70
7077;DHT22;3579;48.956;9.154;2024-01-11T14:28:14;12.80;54.80
7077;DHT22;3579;48.956;9.154;2024-01-11T14:30:40;12.80;54.80
7077;DHT22;3579;48.956;9.154;2024-01-11T14:33:06;12.70;54.70
7077;DHT22;3579;48.956;9.154;2024-01-11T14:35:32;12.70;54.70
7077;DHT22;3579;48.956;9.154;2024-01-11T14:37:58;12.70;54.80
7077;DHT22;3579;48.956;9.154;2024-01-11T14:40:24;12.70;54.80
7077;DHT22;3579;48.956;9.154;2024-01-11T14:42:50;12.70;54.90
7077;DHT22;3579;48.956;9.154;2024-01-11T14:45:16;12.70;54.90
7077;DHT22;3579;48.956;9.154;2024-01-11T14:47:43;12.70;54.80
7077;DHT22;3579;48.956;9.154;2024-01-11T14:50:09;12.70;54.70
7077;DHT22;3579;48.956;9.154;2024-01-11T14:52:37;12.80;54.80
7077;DHT22;3579;48.956;9.154;2024-01-11T14:55:06;12.80;54.80
7077;DHT22;3579;48.956;9.154;2024-01-11T14:57:32;12.90;54.80
7077;DHT22;3579;48.956;9.154;2024-01-11T14:59:58;13.00;54.80
7077;DHT22;3579;48.956;9.154;2024-01-11T15:02:24;13.00;54.70
7077;DHT22;3579;48.956;9.154;2024-01-11T15:04:51;13.10;54.70
7077;DHT22;3579;48.956;9.154;2024-01-11T15:07:17;13.10;54.70
7077;DHT22;3579;48.956;9.154;2024-01-11T15:09:43;13.10;54.70
7077;DHT22;3579;48.956;9.154;2024-01-11T15:12:10;13.10;54.70
7077;DHT22;3579;48.956;9.154;2024-01-11T15:14:38;13.10;54.80
7077;DHT22;3579;48.956;9.154;2024-01-11T15:17:04;13.10;54.80
7077;DHT22;3579;48.956;9.154;2024-01-11T15:19:30;13.10;54.80
7077;DHT22;3579;48.956;9.154;2024-01-11T15:21:57;13.10;54.90
7077;DHT22;3579;48.956;9.154;2024-01-11T15:24:23;13.10;54.90
7077;DHT22;3579;48.956;9.154;2024-01-11T15:26:49;13.10;54.90
7077;DHT22;3579;48.956;9.154;2024-01-11T15:29:16;13.10;54.80
7077;DHT22;3579;48.956;9.154;2024-01-11T15:31:42;13.10;54.80
7077;DHT22;3579;48.956;9.154;2024-01-11T15:34:12;13.10;54.90
7077;DHT22;3579;48.956;9.154;2024-01-11T15:36:39;13.10;54.90
7077;DHT22;3579;48.956;9.154;2024-01-11T15:39:06;13.00;54.80
7077;DHT22;3579;48.956;9.154;2024-01-11T15:41:33;13.00;54.80
7077;DHT22;3579;48.956;9.154;2024-01-11T15:43:59;13.00;54.90
7077;DHT22;3579;48.956;9.154;2024-01-11T15:46:26;13.00;55.00
7077;DHT22;3579;48.956;9.154;2024-01-11T15:48:52;13.00;55.00
7077;DHT22;3579;48.956;9.154;2024-01-11T15:51:18;12.90;54.90
7077;DHT22;3579;48.956;9.154;2024-01-11T15:53:44;12.90;55.00
7077;DHT22;3579;48.956;9.154;2024-01-11T15:56:10;12.90;55.00
7077;DHT22;3579;48.956;9.154;2024-01-11T15:58:37;12.90;55.00
7077;DHT22;3579;48.956;9.154;2024-01-11T16:01:05;12.90;55.10
7077;DHT22;3579;48.956;9.154;2024-01-11T16:03:31;12.90;55.10